Time;durP1;ratioP1;P1;durP2;ratioP2;P2;SDS_P1;SDS_P2;PMS_P1;PMS_P2;Temp;Humidity;BMP_temperature;BMP_pressure;BME280_temperature;BME280_humidity;BME280_pressure;Samples;Min_cycle;Max_cycle;Signal;HPM_P1;HPM_P2
2022/06/15 00:00:10;;;;;;;;;;;;;;;;;;1923480;28;7292;-68
2022/06/15 00:01:13;;;;;;;;;;;;;;;;;;1920825;28;7104;-68
2022/06/15 00:02:11;;;;;;;;;;;;;;;;;;1921300;28;7013;-68
2022/06/15 00:03:09;;;;;;;;;;;;;;;;;;1923900;28;7045;-66
2022/06/15 00:04:06;;;;;;;;;;;;;;;;;;1927226;28;7012;-69
2022/06/15 00:05:04;;;;;;;;;;;;;;;;;;1925579;28;7050;-66
2022/06/15 00:06:06;;;;;;;;;;;;;;;;;;1919731;28;7096;-66
2022/06/15 00:07:04;;;;;;;;;;;;;;;;;;1919988;28;7045;-68
2022/06/15 00:08:01;;;;;;;;;;;;;;;;;;1921257;28;7021;-68
2022/06/15 00:08:59;;;;;;;;;;;;;;;;;;1924873;28;7006;-67
2022/06/15 00:09:56;;;;;;;;;;;;;;;;;;1922542;28;7017;-67
2022/06/15 00:10:54;;;;;;;;;;;;;;;;;;1920326;28;7100;-67
2022/06/15 00:11:51;;;;;;;;;;;;;;;;;;1913584;28;8216;-68
2022/06/15 00:12:49;;;;;;;;;;;;;;;;;;1915999;28;7009;-67
2022/06/15 00:13:47;;;;;;;;;;;;;;;;;;1918512;28;7045;-67
2022/06/15 00:14:44;;;;;;;;;;;;;;;;;;1916087;28;7017;-68
2022/06/15 00:15:44;;;;;;;;;;;;;;;;;;1915841;28;7038;-68
2022/06/15 00:16:42;;;;;;;;;;;;;;;;;;1924929;28;7100;-67
2022/06/15 00:17:40;;;;;;;;;;;;;;;;;;1921613;28;7022;-67
2022/06/15 00:18:38;;;;;;;;;;;;;;;;;;1921374;28;7077;-67
2022/06/15 00:19:35;;;;;;;;;;;;;;;;;;1922524;28;7293;-68
2022/06/15 00:20:32;;;;;;;;;;;;;;;;;;1921206;28;7009;-67
2022/06/15 00:21:30;;;;;;;;;;;;;;;;;;1920024;28;7013;-68
2022/06/15 00:22:28;;;;;;;;;;;;;;;;;;1919269;28;7116;-68
2022/06/15 00:23:27;;;;;;;;;;;;;;;;;;1919575;28;7092;-67
2022/06/15 00:24:24;;;;;;;;;;;;;;;;;;1922546;28;7042;-67
2022/06/15 00:25:22;;;;;;;;;;;;;;;;;;1919386;28;7050;-68
2022/06/15 00:26:19;;;;;;;;;;;;;;;;;;1919822;28;7042;-69
2022/06/15 00:27:16;;;;;;;;;;;;;;;;;;1925284;28;7442;-67
2022/06/15 00:28:14;;;;;;;;;;;;;;;;;;1926690;28;7009;-67
2022/06/15 00:29:11;;;;;;;;;;;;;;;;;;1919145;28;7057;-68
2022/06/15 00:30:09;;;;;;;;;;;;;;;;;;1923748;28;7092;-68
2022/06/15 00:31:07;;;;;;;;;;;;;;;;;;1925236;28;7009;-67
2022/06/15 00:32:07;;;;;;;;;;;;;;;;;;1923882;28;7319;-67
2022/06/15 00:33:04;;;;;;;;;;;;;;;;;;1922551;28;7038;-68
2022/06/15 00:34:02;;;;;;;;;;;;;;;;;;1923444;28;7045;-67
2022/06/15 00:34:59;;;;;;;;;;;;;;;;;;1922668;28;7327;-67
2022/06/15 00:36:00;;;;;;;;;;;;;;;;;;1920769;28;7256;-67
2022/06/15 00:36:57;;;;;;;;;;;;;;;;;;1919135;28;7120;-68
2022/06/15 00:37:55;;;;;;;;;;;;;;;;;;1920247;28;7025;-68
2022/06/15 00:38:54;;;;;;;;;;;;;;;;;;1920176;28;7328;-67
2022/06/15 00:39:51;;;;;;;;;;;;;;;;;;1924611;28;7009;-67
2022/06/15 00:40:49;;;;;;;;;;;;;;;;;;1928783;28;8102;-68
2022/06/15 00:41:46;;;;;;;;;;;;;;;;;;1922320;28;7120;-67
2022/06/15 00:42:44;;;;;;;;;;;;;;;;;;1929336;28;7375;-67
2022/06/15 00:43:44;;;;;;;;;;;;;;;;;;1927655;28;7001;-68
2022/06/15 00:44:42;;;;;;;;;;;;;;;;;;1926014;28;7343;-68
2022/06/15 00:45:39;;;;;;;;;;;;;;;;;;1920918;28;7312;-68
2022/06/15 00:46:43;;;;;;;;;;;;;;;;;;1924700;28;7096;-67
2022/06/15 00:47:44;;;;;;;;;;;;;;;;;;1926497;28;7017;-69
2022/06/15 00:48:43;;;;;;;;;;;;;;;;;;1920994;28;7009;-69
2022/06/15 00:49:47;;;;;;;;;;;;;;;;;;1925448;28;7050;-68
2022/06/15 00:50:44;;;;;;;;;;;;;;;;;;1924274;28;7013;-68
2022/06/15 00:51:44;;;;;;;;;;;;;;;;;;1922853;28;7009;-68
2022/06/15 00:52:47;;;;;;;;;;;;;;;;;;1927574;28;8106;-68
2022/06/15 00:53:45;;;;;;;;;;;;;;;;;;1921643;28;7096;-69
2022/06/15 00:54:46;;;;;;;;;;;;;;;;;;1916888;28;7088;-66
2022/06/15 00:55:44;;;;;;;;;;;;;;;;;;1912598;28;7304;-67
2022/06/15 00:56:42;;;;;;;;;;;;;;;;;;1926665;28;7041;-67
2022/06/15 00:57:40;;;;;;;;;;;;;;;;;;1922166;28;7033;-67
2022/06/15 00:58:40;;;;;;;;;;;;;;;;;;1921075;28;7009;-66
2022/06/15 00:59:43;;;;;;;;;;;;;;;;;;1923744;28;7151;-69
2022/06/15 01:00:40;;;;;;;;;;;;;;;;;;1928446;28;7013;-68
2022/06/15 01:01:38;;;;;;;;;;;;;;;;;;1923625;28;7013;-68
2022/06/15 01:02:36;;;;;;;;;;;;;;;;;;1928175;28;7025;-68
2022/06/15 01:03:34;;;;;;;;;;;;;;;;;;1928378;28;7041;-68
2022/06/15 01:04:38;;;;;;;;;;;;;;;;;;1925394;28;7009;-69
2022/06/15 01:05:36;;;;;;;;;;;;;;;;;;1926306;28;8014;-66
2022/06/15 01:06:46;;;;;;;;;;;;;;;;;;1921799;28;7038;-68
2022/06/15 01:08:06;;;;;;;;;;;;;;;;;;1925583;28;7009;-68
2022/06/15 01:09:11;;;;;;;;;;;;;;;;;;1922360;28;7009;-68
2022/06/15 01:10:25;;;;;;;;;;;;;;;;;;1924787;28;7132;-69
2022/06/15 01:11:31;;;;;;;;;;;;;;;;;;1919917;28;7061;-68
2022/06/15 01:12:35;;;;;;;;;;;;;;;;;;1924519;28;7006;-67
2022/06/15 01:13:32;;;;;;;;;;;;;;;;;;1919367;28;7466;-69
2022/06/15 01:14:32;;;;;;;;;;;;;;;;;;1920637;28;7010;-68
2022/06/15 01:15:55;;;;;;;;;;;;;;;;;;1921072;28;7010;-68
2022/06/15 01:17:11;;;;;;;;;;;;;;;;;;1927007;28;8059;-67
2022/06/15 01:18:12;;;;;;;;;;;;;;;;;;1922928;28;7041;-67
2022/06/15 01:19:09;;;;;;;;;;;;;;;;;;1924891;28;8035;-67
2022/06/15 01:20:36;;;;;;;;;;;;;;;;;;1923503;28;7034;-68
2022/06/15 01:21:56;;;;;;;;;;;;;;;;;;1910492;28;7385;-67
2022/06/15 01:22:53;;;;;;;;;;;;;;;;;;1906188;28;7009;-67
2022/06/15 01:24:04;;;;;;;;;;;;;;;;;;1924674;28;8047;-68
2022/06/15 01:25:21;;;;;;;;;;;;;;;;;;1927514;28;7042;-66
2022/06/15 01:26:37;;;;;;;;;;;;;;;;;;1898792;28;7042;-67
2022/06/15 01:27:43;;;;;;;;;;;;;;;;;;1915990;28;7151;-68
2022/06/15 01:28:54;;;;;;;;;;;;;;;;;;1918110;28;7308;-68
2022/06/15 01:30:09;;;;;;;;;;;;;;;;;;1924943;28;7041;-67
2022/06/15 01:31:17;;;;;;;;;;;;;;;;;;1919008;28;7013;-66
2022/06/15 01:32:32;;;;;;;;;;;;;;;;;;1924541;28;7120;-67
2022/06/15 01:33:30;;;;;;;;;;;;;;;;;;1911598;28;7009;-68
2022/06/15 01:34:27;;;;;;;;;;;;;;;;;;1912643;28;7077;-69
2022/06/15 01:35:33;;;;;;;;;;;;;;;;;;1922387;28;7025;-67
2022/06/15 01:36:34;;;;;;;;;;;;;;;;;;1923277;28;7009;-67
2022/06/15 01:37:41;;;;;;;;;;;;;;;;;;1922386;28;7372;-67
2022/06/15 01:38:49;;;;;;;;;;;;;;;;;;1922644;28;7041;-69
2022/06/15 01:39:46;;;;;;;;;;;;;;;;;;1922127;28;7096;-67
2022/06/15 01:40:46;;;;;;;;;;;;;;;;;;1922340;28;7009;-67
2022/06/15 01:41:49;;;;;;;;;;;;;;;;;;1928523;28;7029;-67
2022/06/15 01:42:54;;;;;;;;;;;;;;;;;;1927721;28;7009;-67
2022/06/15 01:44:00;;;;;;;;;;;;;;;;;;1918078;28;8103;-68
2022/06/15 01:45:03;;;;;;;;;;;;;;;;;;1919663;28;7285;-67
2022/06/15 01:46:03;;;;;;;;;;;;;;;;;;1922998;28;7013;-68
2022/06/15 01:47:05;;;;;;;;;;;;;;;;;;1928135;28;7374;-67
2022/06/15 01:48:07;;;;;;;;;;;;;;;;;;1921121;28;7013;-68
2022/06/15 01:49:08;;;;;;;;;;;;;;;;;;1919379;28;7013;-67
2022/06/15 01:50:17;;;;;;;;;;;;;;;;;;1928022;28;7009;-68
2022/06/15 01:51:19;;;;;;;;;;;;;;;;;;1920005;28;7389;-68
2022/06/15 01:52:21;;;;;;;;;;;;;;;;;;1922254;28;7006;-69
2022/06/15 01:53:30;;;;;;;;;;;;;;;;;;1925989;28;8047;-68
2022/06/15 01:54:32;;;;;;;;;;;;;;;;;;1923751;28;7037;-68
2022/06/15 01:55:38;;;;;;;;;;;;;;;;;;1923548;28;7014;-68
2022/06/15 01:56:40;;;;;;;;;;;;;;;;;;1927858;28;7387;-67
2022/06/15 01:57:41;;;;;;;;;;;;;;;;;;1926560;28;7096;-67
2022/06/15 01:58:42;;;;;;;;;;;;;;;;;;1922631;28;7012;-66
2022/06/15 01:59:44;;;;;;;;;;;;;;;;;;1924058;28;7005;-68
2022/06/15 02:00:47;;;;;;;;;;;;;;;;;;1918560;28;8119;-68
2022/06/15 02:02:08;;;;;;;;;;;;;;;;;;1924458;28;7057;-66
2022/06/15 02:03:11;;;;;;;;;;;;;;;;;;1924016;28;8030;-68
2022/06/15 02:04:17;;;;;;;;;;;;;;;;;;1926815;28;7096;-68
2022/06/15 02:05:22;;;;;;;;;;;;;;;;;;1922916;28;7112;-66
2022/06/15 02:06:37;;;;;;;;;;;;;;;;;;1928465;28;7001;-67
2022/06/15 02:07:49;;;;;;;;;;;;;;;;;;1923452;28;7091;-68
2022/06/15 02:08:58;;;;;;;;;;;;;;;;;;1920168;28;7005;-67
2022/06/15 02:09:59;;;;;;;;;;;;;;;;;;1922643;28;7344;-68
2022/06/15 02:10:57;;;;;;;;;;;;;;;;;;1927350;28;7013;-67
2022/06/15 02:11:57;;;;;;;;;;;;;;;;;;1924006;28;7256;-69
2022/06/15 02:13:13;;;;;;;;;;;;;;;;;;1924786;28;7041;-67
2022/06/15 02:14:19;;;;;;;;;;;;;;;;;;1924654;28;7942;-67
2022/06/15 02:15:20;;;;;;;;;;;;;;;;;;1922188;28;7012;-70
2022/06/15 02:16:22;;;;;;;;;;;;;;;;;;1922366;28;7240;-66
2022/06/15 02:17:28;;;;;;;;;;;;;;;;;;1920193;28;7042;-68
2022/06/15 02:18:28;;;;;;;;;;;;;;;;;;1920136;28;7029;-69
2022/06/15 02:19:35;;;;;;;;;;;;;;;;;;1924312;28;8106;-69
2022/06/15 02:20:37;;;;;;;;;;;;;;;;;;1916521;28;7025;-68
2022/06/15 02:21:38;;;;;;;;;;;;;;;;;;1911910;28;7013;-69
2022/06/15 02:22:39;;;;;;;;;;;;;;;;;;1921083;28;7010;-68
2022/06/15 02:23:39;;;;;;;;;;;;;;;;;;1926247;28;7013;-67
2022/06/15 02:24:38;;;;;;;;;;;;;;;;;;1921877;28;8125;-68
2022/06/15 02:25:38;;;;;;;;;;;;;;;;;;1922445;28;7116;-68
2022/06/15 02:26:38;;;;;;;;;;;;;;;;;;1926378;28;7288;-66
2022/06/15 02:27:38;;;;;;;;;;;;;;;;;;1927475;28;7100;-66
2022/06/15 02:28:41;;;;;;;;;;;;;;;;;;1918834;28;8026;-67
2022/06/15 02:29:41;;;;;;;;;;;;;;;;;;1912574;28;7368;-67
2022/06/15 02:30:40;;;;;;;;;;;;;;;;;;1927493;28;7005;-69
2022/06/15 02:31:38;;;;;;;;;;;;;;;;;;1925833;28;7037;-68
2022/06/15 02:32:36;;;;;;;;;;;;;;;;;;1925007;28;7410;-69
2022/06/15 02:33:38;;;;;;;;;;;;;;;;;;1919221;28;7014;-67
2022/06/15 02:34:36;;;;;;;;;;;;;;;;;;1920051;28;7113;-67
2022/06/15 02:35:34;;;;;;;;;;;;;;;;;;1923849;28;7088;-67
2022/06/15 02:36:32;;;;;;;;;;;;;;;;;;1928011;28;7262;-67
2022/06/15 02:37:29;;;;;;;;;;;;;;;;;;1927473;28;7097;-67
2022/06/15 02:38:28;;;;;;;;;;;;;;;;;;1922301;28;7025;-67
2022/06/15 02:39:25;;;;;;;;;;;;;;;;;;1926840;28;7030;-67
2022/06/15 02:40:23;;;;;;;;;;;;;;;;;;1925124;28;7284;-68
2022/06/15 02:41:20;;;;;;;;;;;;;;;;;;1925091;28;7038;-68
2022/06/15 02:42:24;;;;;;;;;;;;;;;;;;1926328;28;7009;-67
2022/06/15 02:43:25;;;;;;;;;;;;;;;;;;1919962;28;7042;-67
2022/06/15 02:44:23;;;;;;;;;;;;;;;;;;1919890;28;7013;-68
2022/06/15 02:45:28;;;;;;;;;;;;;;;;;;1911723;28;7280;-68
2022/06/15 02:46:27;;;;;;;;;;;;;;;;;;1913922;28;7025;-67
2022/06/15 02:47:28;;;;;;;;;;;;;;;;;;1927749;28;7123;-68
2022/06/15 02:48:26;;;;;;;;;;;;;;;;;;1910465;28;7124;-67
2022/06/15 02:49:24;;;;;;;;;;;;;;;;;;1916882;28;7005;-68
2022/06/15 02:50:26;;;;;;;;;;;;;;;;;;1925173;28;7001;-68
2022/06/15 02:51:34;;;;;;;;;;;;;;;;;;1921986;28;7009;-67
2022/06/15 02:52:36;;;;;;;;;;;;;;;;;;1922398;28;7096;-68
2022/06/15 02:53:35;;;;;;;;;;;;;;;;;;1919346;28;7088;-67
2022/06/15 02:54:40;;;;;;;;;;;;;;;;;;1923443;28;7042;-67
2022/06/15 02:55:38;;;;;;;;;;;;;;;;;;1923207;28;7088;-67
2022/06/15 02:56:38;;;;;;;;;;;;;;;;;;1921519;28;7005;-67
2022/06/15 02:57:43;;;;;;;;;;;;;;;;;;1920535;28;7156;-69
2022/06/15 02:58:43;;;;;;;;;;;;;;;;;;1917995;28;7439;-67
2022/06/15 02:59:41;;;;;;;;;;;;;;;;;;1919344;28;7479;-67
2022/06/15 03:00:39;;;;;;;;;;;;;;;;;;1923397;28;7512;-67
2022/06/15 03:01:37;;;;;;;;;;;;;;;;;;1919890;28;7005;-67
2022/06/15 03:02:34;;;;;;;;;;;;;;;;;;1927290;28;7009;-67
2022/06/15 03:03:33;;;;;;;;;;;;;;;;;;1921160;28;7179;-67
2022/06/15 03:04:30;;;;;;;;;;;;;;;;;;1922778;28;7009;-68
2022/06/15 03:05:27;;;;;;;;;;;;;;;;;;1919006;28;7010;-68
2022/06/15 03:06:27;;;;;;;;;;;;;;;;;;1921538;28;7093;-67
2022/06/15 03:07:26;;;;;;;;;;;;;;;;;;1911339;28;7148;-69
2022/06/15 03:08:23;;;;;;;;;;;;;;;;;;1911765;28;7005;-67
2022/06/15 03:09:21;;;;;;;;;;;;;;;;;;1914302;28;7092;-67
2022/06/15 03:10:18;;;;;;;;;;;;;;;;;;1916326;28;7107;-68
2022/06/15 03:11:16;;;;;;;;;;;;;;;;;;1924053;28;7076;-69
2022/06/15 03:12:13;;;;;;;;;;;;;;;;;;1925653;28;7009;-68
2022/06/15 03:13:11;;;;;;;;;;;;;;;;;;1916176;28;7376;-68
2022/06/15 03:14:08;;;;;;;;;;;;;;;;;;1917333;28;7005;-67
2022/06/15 03:15:06;;;;;;;;;;;;;;;;;;1925084;28;7005;-68
2022/06/15 03:16:04;;;;;;;;;;;;;;;;;;1919067;28;7006;-69
2022/06/15 03:17:01;;;;;;;;;;;;;;;;;;1922383;28;7013;-67
2022/06/15 03:17:59;;;;;;;;;;;;;;;;;;1924169;28;7096;-66
2022/06/15 03:18:56;;;;;;;;;;;;;;;;;;1923051;28;7105;-69
2022/06/15 03:19:54;;;;;;;;;;;;;;;;;;1925943;28;7053;-67
2022/06/15 03:20:55;;;;;;;;;;;;;;;;;;1920755;28;7021;-67
2022/06/15 03:21:52;;;;;;;;;;;;;;;;;;1925321;28;7023;-68
2022/06/15 03:22:49;;;;;;;;;;;;;;;;;;1923941;28;7009;-67
2022/06/15 03:23:47;;;;;;;;;;;;;;;;;;1925112;28;7308;-69
2022/06/15 03:24:44;;;;;;;;;;;;;;;;;;1918968;28;8402;-66
2022/06/15 03:25:42;;;;;;;;;;;;;;;;;;1914774;28;7009;-67
2022/06/15 03:26:39;;;;;;;;;;;;;;;;;;1911527;28;7033;-69
2022/06/15 03:27:36;;;;;;;;;;;;;;;;;;1921810;28;7005;-67
2022/06/15 03:28:34;;;;;;;;;;;;;;;;;;1926657;28;7092;-67
2022/06/15 03:29:32;;;;;;;;;;;;;;;;;;1922852;28;7005;-68
2022/06/15 03:30:30;;;;;;;;;;;;;;;;;;1927582;28;7233;-69
2022/06/15 03:31:27;;;;;;;;;;;;;;;;;;1918974;28;7471;-68
2022/06/15 03:32:25;;;;;;;;;;;;;;;;;;1914792;28;7022;-68
2022/06/15 03:33:22;;;;;;;;;;;;;;;;;;1924349;28;8035;-68
2022/06/15 03:34:19;;;;;;;;;;;;;;;;;;1923807;28;7092;-66
2022/06/15 03:35:17;;;;;;;;;;;;;;;;;;1919928;28;7013;-67
2022/06/15 03:36:14;;;;;;;;;;;;;;;;;;1924427;28;7009;-69
2022/06/15 03:37:12;;;;;;;;;;;;;;;;;;1927373;28;7109;-66
2022/06/15 03:38:10;;;;;;;;;;;;;;;;;;1927453;28;7084;-67
2022/06/15 03:39:08;;;;;;;;;;;;;;;;;;1927004;28;7001;-68
2022/06/15 03:40:06;;;;;;;;;;;;;;;;;;1921428;28;7092;-68
2022/06/15 03:41:03;;;;;;;;;;;;;;;;;;1922352;28;7038;-67
2022/06/15 03:42:13;;;;;;;;;;;;;;;;;;1923687;28;7383;-67
2022/06/15 03:43:10;;;;;;;;;;;;;;;;;;1918719;28;7013;-67
2022/06/15 03:44:10;;;;;;;;;;;;;;;;;;1920500;28;7171;-69
2022/06/15 03:45:11;;;;;;;;;;;;;;;;;;1919155;28;7307;-66
2022/06/15 03:46:10;;;;;;;;;;;;;;;;;;1917770;28;7014;-69
2022/06/15 03:47:12;;;;;;;;;;;;;;;;;;1922284;28;7009;-68
2022/06/15 03:48:11;;;;;;;;;;;;;;;;;;1919871;28;7096;-67
2022/06/15 03:49:09;;;;;;;;;;;;;;;;;;1918385;28;7073;-67
2022/06/15 03:50:06;;;;;;;;;;;;;;;;;;1916227;28;7013;-67
2022/06/15 03:51:04;;;;;;;;;;;;;;;;;;1922560;28;7005;-68
2022/06/15 03:52:01;;;;;;;;;;;;;;;;;;1919772;28;7045;-67
2022/06/15 03:53:00;;;;;;;;;;;;;;;;;;1915566;28;7766;-68
2022/06/15 03:53:57;;;;;;;;;;;;;;;;;;1912423;28;7124;-69
2022/06/15 03:54:55;;;;;;;;;;;;;;;;;;1923384;28;7121;-69
2022/06/15 03:55:52;;;;;;;;;;;;;;;;;;1919617;28;7116;-67
2022/06/15 03:56:49;;;;;;;;;;;;;;;;;;1921782;28;7121;-68
2022/06/15 03:57:47;;;;;;;;;;;;;;;;;;1917818;28;7042;-69
2022/06/15 03:58:46;;;;;;;;;;;;;;;;;;1924194;28;7017;-68
2022/06/15 03:59:44;;;;;;;;;;;;;;;;;;1926363;28;8820;-67
2022/06/15 04:00:42;;;;;;;;;;;;;;;;;;1926531;28;8043;-69
2022/06/15 04:01:39;;;;;;;;;;;;;;;;;;1923139;28;8007;-68
2022/06/15 04:02:37;;;;;;;;;;;;;;;;;;1919292;28;7387;-69
2022/06/15 04:03:34;;;;;;;;;;;;;;;;;;1912507;28;7013;-67
2022/06/15 04:04:32;;;;;;;;;;;;;;;;;;1911536;28;7100;-67
2022/06/15 04:05:33;;;;;;;;;;;;;;;;;;1908117;28;7249;-67
2022/06/15 04:06:31;;;;;;;;;;;;;;;;;;1914550;28;7017;-68
2022/06/15 04:08:44;;;;;;;;;;;;;;;;;;1920223;28;7511;-68
2022/06/15 04:09:41;;;;;;;;;;;;;;;;;;1923706;28;7097;-67
2022/06/15 04:10:39;;;;;;;;;;;;;;;;;;1926148;28;7017;-68
2022/06/15 04:12:52;;;;;;;;;;;;;;;;;;1919978;28;8095;-68
2022/06/15 04:13:50;;;;;;;;;;;;;;;;;;1923200;28;7001;-68
2022/06/15 04:14:47;;;;;;;;;;;;;;;;;;1919200;28;7088;-69
2022/06/15 04:15:45;;;;;;;;;;;;;;;;;;1919215;28;7034;-68
2022/06/15 04:16:43;;;;;;;;;;;;;;;;;;1919495;28;7005;-67
2022/06/15 04:17:40;;;;;;;;;;;;;;;;;;1918169;28;7005;-68
2022/06/15 04:18:38;;;;;;;;;;;;;;;;;;1920649;28;7013;-67
2022/06/15 04:19:35;;;;;;;;;;;;;;;;;;1924210;28;7002;-68
2022/06/15 04:20:33;;;;;;;;;;;;;;;;;;1922608;28;7092;-68
2022/06/15 04:21:31;;;;;;;;;;;;;;;;;;1926839;28;7092;-68
2022/06/15 04:22:28;;;;;;;;;;;;;;;;;;1915406;28;7005;-67
2022/06/15 04:23:26;;;;;;;;;;;;;;;;;;1911514;28;7088;-66
2022/06/15 04:24:26;;;;;;;;;;;;;;;;;;1920587;28;7009;-67
2022/06/15 04:25:23;;;;;;;;;;;;;;;;;;1926993;28;7391;-66
2022/06/15 04:26:21;;;;;;;;;;;;;;;;;;1927817;28;7005;-67
2022/06/15 04:27:18;;;;;;;;;;;;;;;;;;1923180;28;7948;-68
2022/06/15 04:28:16;;;;;;;;;;;;;;;;;;1920896;28;7001;-67
2022/06/15 04:29:14;;;;;;;;;;;;;;;;;;1912803;28;7021;-68
2022/06/15 04:30:12;;;;;;;;;;;;;;;;;;1915823;28;7009;-67
2022/06/15 04:31:09;;;;;;;;;;;;;;;;;;1917383;28;7376;-69
2022/06/15 04:32:07;;;;;;;;;;;;;;;;;;1921442;28;7046;-66
2022/06/15 04:33:05;;;;;;;;;;;;;;;;;;1921581;28;7034;-67
2022/06/15 04:34:02;;;;;;;;;;;;;;;;;;1918834;28;7026;-67
2022/06/15 04:34:59;;;;;;;;;;;;;;;;;;1924605;28;7038;-68
2022/06/15 04:35:57;;;;;;;;;;;;;;;;;;1919839;28;7013;-67
2022/06/15 04:36:55;;;;;;;;;;;;;;;;;;1925546;28;7116;-69
2022/06/15 04:37:52;;;;;;;;;;;;;;;;;;1923153;28;7017;-67
2022/06/15 04:38:50;;;;;;;;;;;;;;;;;;1922088;28;8042;-67
2022/06/15 04:39:53;;;;;;;;;;;;;;;;;;1920484;28;7092;-67
2022/06/15 04:40:51;;;;;;;;;;;;;;;;;;1911416;28;7014;-67
2022/06/15 04:41:48;;;;;;;;;;;;;;;;;;1912889;28;7034;-68
2022/06/15 04:42:46;;;;;;;;;;;;;;;;;;1923751;28;7002;-68
2022/06/15 04:43:43;;;;;;;;;;;;;;;;;;1923915;28;7005;-69
2022/06/15 04:44:41;;;;;;;;;;;;;;;;;;1926890;28;7030;-67
2022/06/15 04:45:38;;;;;;;;;;;;;;;;;;1926798;28;7009;-66
2022/06/15 04:46:36;;;;;;;;;;;;;;;;;;1921236;28;7096;-69
2022/06/15 04:47:33;;;;;;;;;;;;;;;;;;1923588;28;7084;-69
2022/06/15 04:48:31;;;;;;;;;;;;;;;;;;1919901;28;7210;-66
2022/06/15 04:49:28;;;;;;;;;;;;;;;;;;1919147;28;7089;-67
2022/06/15 04:50:26;;;;;;;;;;;;;;;;;;1925272;28;7105;-67
2022/06/15 04:51:25;;;;;;;;;;;;;;;;;;1911000;28;7300;-67
2022/06/15 04:52:23;;;;;;;;;;;;;;;;;;1911709;28;7038;-69
2022/06/15 04:53:21;;;;;;;;;;;;;;;;;;1920005;28;7092;-67
2022/06/15 04:54:19;;;;;;;;;;;;;;;;;;1925371;28;7103;-68
2022/06/15 04:55:19;;;;;;;;;;;;;;;;;;1915878;28;7025;-67
2022/06/15 04:56:17;;;;;;;;;;;;;;;;;;1915289;28;7148;-67
2022/06/15 04:57:14;;;;;;;;;;;;;;;;;;1925544;28;7005;-67
2022/06/15 04:58:12;;;;;;;;;;;;;;;;;;1925597;28;7006;-69
2022/06/15 04:59:10;;;;;;;;;;;;;;;;;;1923500;28;7069;-66
2022/06/15 05:00:09;;;;;;;;;;;;;;;;;;1926810;28;7679;-69
2022/06/15 05:01:07;;;;;;;;;;;;;;;;;;1927042;28;7148;-67
2022/06/15 05:02:05;;;;;;;;;;;;;;;;;;1924754;28;7112;-67
2022/06/15 05:03:09;;;;;;;;;;;;;;;;;;1924622;28;8043;-68
2022/06/15 05:04:07;;;;;;;;;;;;;;;;;;1926604;28;7128;-67
2022/06/15 05:05:04;;;;;;;;;;;;;;;;;;1926725;28;7012;-67
2022/06/15 05:06:07;;;;;;;;;;;;;;;;;;1924273;28;7013;-67
2022/06/15 05:07:06;;;;;;;;;;;;;;;;;;1918498;28;7009;-68
2022/06/15 05:08:04;;;;;;;;;;;;;;;;;;1920682;28;7042;-67
2022/06/15 05:09:03;;;;;;;;;;;;;;;;;;1924818;28;7116;-68
2022/06/15 05:10:01;;;;;;;;;;;;;;;;;;1924078;28;7037;-66
2022/06/15 05:11:00;;;;;;;;;;;;;;;;;;1922715;28;7006;-67
2022/06/15 05:11:58;;;;;;;;;;;;;;;;;;1924443;28;8593;-66
2022/06/15 05:12:55;;;;;;;;;;;;;;;;;;1919794;28;7088;-67
2022/06/15 05:13:53;;;;;;;;;;;;;;;;;;1919083;28;7009;-69
2022/06/15 05:14:51;;;;;;;;;;;;;;;;;;1918554;28;7006;-67
2022/06/15 05:15:48;;;;;;;;;;;;;;;;;;1921601;28;7013;-68
2022/06/15 05:16:46;;;;;;;;;;;;;;;;;;1923712;28;7041;-66
2022/06/15 05:17:45;;;;;;;;;;;;;;;;;;1927639;28;7009;-66
2022/06/15 05:18:42;;;;;;;;;;;;;;;;;;1922450;28;7109;-69
2022/06/15 05:19:39;;;;;;;;;;;;;;;;;;1924604;28;7088;-67
2022/06/15 05:20:38;;;;;;;;;;;;;;;;;;1918148;28;8034;-68
2022/06/15 05:21:39;;;;;;;;;;;;;;;;;;1926381;28;7033;-68
2022/06/15 05:22:37;;;;;;;;;;;;;;;;;;1924442;28;7037;-67
2022/06/15 05:23:34;;;;;;;;;;;;;;;;;;1923015;28;7295;-66
2022/06/15 05:24:32;;;;;;;;;;;;;;;;;;1927348;28;8026;-68
2022/06/15 05:25:29;;;;;;;;;;;;;;;;;;1926257;28;7053;-69
2022/06/15 05:26:29;;;;;;;;;;;;;;;;;;1928043;28;7317;-68
2022/06/15 05:27:26;;;;;;;;;;;;;;;;;;1927178;28;7009;-67
2022/06/15 05:28:23;;;;;;;;;;;;;;;;;;1922505;28;7013;-67
2022/06/15 05:29:22;;;;;;;;;;;;;;;;;;1925705;28;7005;-67
2022/06/15 05:30:19;;;;;;;;;;;;;;;;;;1928875;28;7009;-69
2022/06/15 05:31:20;;;;;;;;;;;;;;;;;;1922139;28;7120;-68
2022/06/15 05:32:17;;;;;;;;;;;;;;;;;;1920741;28;7009;-67
2022/06/15 05:33:15;;;;;;;;;;;;;;;;;;1913706;28;7009;-69
2022/06/15 05:34:12;;;;;;;;;;;;;;;;;;1913576;28;8035;-67
2022/06/15 05:35:10;;;;;;;;;;;;;;;;;;1913583;28;7320;-67
2022/06/15 05:36:10;;;;;;;;;;;;;;;;;;1913448;28;7013;-67
2022/06/15 05:37:08;;;;;;;;;;;;;;;;;;1911100;28;7009;-66
2022/06/15 05:38:06;;;;;;;;;;;;;;;;;;1913623;28;7013;-67
2022/06/15 05:39:04;;;;;;;;;;;;;;;;;;1920871;28;7032;-67
2022/06/15 05:40:02;;;;;;;;;;;;;;;;;;1920668;28;7013;-69
2022/06/15 05:41:00;;;;;;;;;;;;;;;;;;1913933;28;7013;-68
2022/06/15 05:41:57;;;;;;;;;;;;;;;;;;1913064;28;7041;-66
2022/06/15 05:42:55;;;;;;;;;;;;;;;;;;1913136;28;7010;-68
2022/06/15 05:44:35;;;;;;;;;;;;;;;;;;1913236;28;7073;-66
2022/06/15 05:45:13;;;;;;;;;;;;;;;;;;1911176;28;7010;-68
2022/06/15 05:46:26;;;;;;;;;;;;;;;;;;1910677;28;7109;-67
2022/06/15 05:47:23;;;;;;;;;;;;;;;;;;1913286;28;7033;-66
2022/06/15 05:48:21;;;;;;;;;;;;;;;;;;1912434;28;7005;-67
2022/06/15 05:49:18;;;;;;;;;;;;;;;;;;1912330;28;7065;-68
2022/06/15 05:50:16;;;;;;;;;;;;;;;;;;1912702;28;7096;-67
2022/06/15 05:51:13;;;;;;;;;;;;;;;;;;1913395;28;7036;-68
2022/06/15 05:52:11;;;;;;;;;;;;;;;;;;1919723;28;7005;-67
2022/06/15 05:53:09;;;;;;;;;;;;;;;;;;1919668;28;7005;-67
2022/06/15 05:54:07;;;;;;;;;;;;;;;;;;1913427;28;7009;-69
2022/06/15 05:55:05;;;;;;;;;;;;;;;;;;1912837;28;7116;-67
2022/06/15 05:56:02;;;;;;;;;;;;;;;;;;1911068;28;7149;-68
2022/06/15 05:57:00;;;;;;;;;;;;;;;;;;1912905;28;7002;-67
2022/06/15 05:57:57;;;;;;;;;;;;;;;;;;1913357;28;7005;-68
2022/06/15 05:58:55;;;;;;;;;;;;;;;;;;1912754;28;7092;-67
2022/06/15 05:59:54;;;;;;;;;;;;;;;;;;1913417;28;8022;-67
2022/06/15 06:00:52;;;;;;;;;;;;;;;;;;1913064;28;7009;-69
2022/06/15 06:01:49;;;;;;;;;;;;;;;;;;1912959;28;7041;-69
2022/06/15 06:02:46;;;;;;;;;;;;;;;;;;1919765;28;7042;-67
2022/06/15 06:03:44;;;;;;;;;;;;;;;;;;1920002;28;7001;-68
2022/06/15 06:04:42;;;;;;;;;;;;;;;;;;1914176;28;7009;-67
2022/06/15 06:05:46;;;;;;;;;;;;;;;;;;1913295;28;7021;-67
2022/06/15 06:06:44;;;;;;;;;;;;;;;;;;1913126;28;7041;-68
2022/06/15 06:07:41;;;;;;;;;;;;;;;;;;1913399;28;7037;-68
2022/06/15 06:08:39;;;;;;;;;;;;;;;;;;1912942;28;7198;-67
2022/06/15 06:09:36;;;;;;;;;;;;;;;;;;1912562;28;7089;-68
2022/06/15 06:10:34;;;;;;;;;;;;;;;;;;1919391;28;7291;-69
2022/06/15 06:11:31;;;;;;;;;;;;;;;;;;1919906;28;7013;-67
2022/06/15 06:12:29;;;;;;;;;;;;;;;;;;1914310;28;7224;-67
2022/06/15 06:13:26;;;;;;;;;;;;;;;;;;1912146;28;7084;-67
2022/06/15 06:14:23;;;;;;;;;;;;;;;;;;1910430;28;7013;-66
2022/06/15 06:15:21;;;;;;;;;;;;;;;;;;1913280;28;7054;-67
2022/06/15 06:16:20;;;;;;;;;;;;;;;;;;1910859;28;7356;-69
2022/06/15 06:17:17;;;;;;;;;;;;;;;;;;1913098;28;7025;-66
2022/06/15 06:18:15;;;;;;;;;;;;;;;;;;1912875;28;7042;-68
2022/06/15 06:19:12;;;;;;;;;;;;;;;;;;1913096;28;7013;-68
2022/06/15 06:20:10;;;;;;;;;;;;;;;;;;1913046;28;7017;-67
2022/06/15 06:21:07;;;;;;;;;;;;;;;;;;1911224;28;7025;-68
2022/06/15 06:22:04;;;;;;;;;;;;;;;;;;1911964;28;7101;-66
2022/06/15 06:23:02;;;;;;;;;;;;;;;;;;1911427;28;7042;-68
2022/06/15 06:23:59;;;;;;;;;;;;;;;;;;1912006;28;7006;-66
2022/06/15 06:24:57;;;;;;;;;;;;;;;;;;1913112;28;7088;-69
2022/06/15 06:25:54;;;;;;;;;;;;;;;;;;1913078;28;7022;-67
2022/06/15 06:27:03;;;;;;;;;;;;;;;;;;1920338;28;7117;-67
2022/06/15 06:28:00;;;;;;;;;;;;;;;;;;1919831;28;7029;-66
2022/06/15 06:28:58;;;;;;;;;;;;;;;;;;1910379;28;7026;-66
2022/06/15 06:29:56;;;;;;;;;;;;;;;;;;1911922;28;7001;-67
2022/06/15 06:30:59;;;;;;;;;;;;;;;;;;1913268;28;7303;-68
2022/06/15 06:31:58;;;;;;;;;;;;;;;;;;1909422;28;7108;-67
2022/06/15 06:32:55;;;;;;;;;;;;;;;;;;1909880;28;7014;-67
2022/06/15 06:33:53;;;;;;;;;;;;;;;;;;1906526;28;7116;-67
2022/06/15 06:34:55;;;;;;;;;;;;;;;;;;1905619;28;7092;-67
2022/06/15 06:35:54;;;;;;;;;;;;;;;;;;1909629;28;7006;-67
2022/06/15 06:36:52;;;;;;;;;;;;;;;;;;1910955;28;7266;-68
2022/06/15 06:37:49;;;;;;;;;;;;;;;;;;1914320;28;7025;-67
2022/06/15 06:38:46;;;;;;;;;;;;;;;;;;1913415;28;7009;-67
2022/06/15 06:39:44;;;;;;;;;;;;;;;;;;1907105;28;7078;-67
2022/06/15 06:40:42;;;;;;;;;;;;;;;;;;1905375;28;7009;-68
2022/06/15 06:41:40;;;;;;;;;;;;;;;;;;1907581;28;7009;-66
2022/06/15 06:42:38;;;;;;;;;;;;;;;;;;1895831;28;7033;-67
2022/06/15 06:43:36;;;;;;;;;;;;;;;;;;1903964;28;7150;-66
2022/06/15 06:44:34;;;;;;;;;;;;;;;;;;1909720;28;7005;-68
2022/06/15 06:45:32;;;;;;;;;;;;;;;;;;1902713;28;7089;-68
2022/06/15 06:46:29;;;;;;;;;;;;;;;;;;1904986;28;7924;-66
2022/06/15 06:47:27;;;;;;;;;;;;;;;;;;1906834;28;7005;-67
2022/06/15 06:48:24;;;;;;;;;;;;;;;;;;1908614;28;7092;-67
2022/06/15 06:49:23;;;;;;;;;;;;;;;;;;1909708;28;7204;-69
2022/06/15 06:50:22;;;;;;;;;;;;;;;;;;1908584;28;7120;-68
2022/06/15 06:51:20;;;;;;;;;;;;;;;;;;1908313;28;7009;-68
2022/06/15 06:52:17;;;;;;;;;;;;;;;;;;1908214;28;8027;-67
2022/06/15 06:53:14;;;;;;;;;;;;;;;;;;1909502;28;7025;-68
2022/06/15 06:54:13;;;;;;;;;;;;;;;;;;1907718;28;7005;-68
2022/06/15 06:55:11;;;;;;;;;;;;;;;;;;1912335;28;8035;-66
2022/06/15 06:56:10;;;;;;;;;;;;;;;;;;1908688;28;7009;-70
2022/06/15 06:57:07;;;;;;;;;;;;;;;;;;1913001;28;7092;-68